Strona główna
METAR-TAF:

METAR-TAF

Lotnisko :

Port lotniczy Bratysława

Bratysława, Słowacja

Szerokość geograficzna: 48-12N, Długość geograficzna: 017-12E, wysokość: 133 m

Aktualna obserwacja pogody

Raport powstał 27 minut temu, godzina 03:30 UTC
Wiatr 4 kt od północno-północny wschód
Temperatura 4°C
Wilgotność 56%
Ciśnienie 1022 hPa
Widzialność 10 km lub więcej
Brak chmur poniżej 1500 m i brak chmur cumulonimbus

METAR: LZIB 090330Z 03004KT CAVOK 04/M04 Q1022

czas: 05:57 (03:57 UTC)

Prognoza

Raport powstał 4 godziny i 57 minut temu, godzina 23:00 UTC
Prognoza ważna od 09 godzina 00 UTC do 10 godzina 00 UTC
Wiatr 2 kt z kierunków zmiennych
Widzialność 10 km lub więcej
Brak chmur poniżej 1500 m i brak chmur cumulonimbus
Stopniowe zmiany
od 09 godzina 11 UTC do 09 godzina 13 UTC
Wiatr 6 kt od zachód
Stopniowe zmiany
od 09 godzina 22 UTC do 10 godzina 00 UTC
Wiatr 8 kt od północ

TAF: LZIB 082300Z 0900/1000 VRB02KT CAVOK BECMG 0911/0913 28006KT BECMG 0922/1000 01008KT

Obserwacja i prognoza pogody dla ponad 4000 lotnisk (raport METAR i TAF).

Dostępne stacje oznaczono żółtymi i czerwonymi punktami na mapie.

Najedź kursorem aby zobaczyć nazwę stacji.

Kliknij aby zobaczyć obserwacje i prognozy pogody.

Aby zmienić mapę: kliknij na zielony przycisk z czarnym krzyżykiem, aby powiększyć; na zielony przycisk z myślnikiem, aby pomniejszyć; na zielone strzałki, aby przejść do map sąsiednich.


METAR-TAF: